Payerne, Switzerland
Current Conditions -  °F | °C
As of 6:50 AM on Wednesday 28 Jan 2015 (Local Time) from LSMP Reporting Station
Overcast Overcast  
Wind Chill: 27°   Ceiling: 3700
Heat Index: 27°   Visibility: 6mi
Dew Point: 25°   Wind: 3mph
Humidity: 93%   Direction: 210°SSW
Pressure: 30.15"   Gusts: NA
Location:  46.82°N, 6.92°E
Report Text: LSMP 280550Z 21003KT 9999 OVC037 M03/M04 Q1021 RMK WHT
Loading
Personal Weather Stations






























Interactive Weather Map New forecast layout! Learn more

10-Day Weather Forecast

Advertisements
Track Severe Weather on mobile